PVG weather

Hampton Roads Executive Airport
Norfolk, Virginia, United States

Public forecast

Using degrees Fahrenheit for public forecast. Weather courtesy of forecast.io.

Current aviation weather report (METAR) for Hampton Roads Executive Airport

Report is more than 6 hours old.

Retrieved 2019/10/11 14:56 UTC (5 days ago):

KPVG 111456Z AUTO VRB06KT 10SM CLR 18/09 A3012 RMK AO2 SLP200 T01830089 51006

Closest aviation forecast (TAF) to Hampton Roads Executive Airport

Forecast is more than 12 hours old.

Closest forecast is Norfolk Naval Station (Chambers Field), 12.2 nm (22.5 km) NE. Retrieved 2014/12/02 15:51 UTC (5 years ago):

TAF TAF KNGU 021500Z 0215/0315 02012KT 8000 BR OVC008 QNH3033INS TEMPO 0215/0221 2400 -DZ BR OVC004 FM022300 35007KT 8000 BR BKN009 OVC020 QNH3037INS FM030700 24005KT 9000 BR SCT008 SCT020 BKN050 QNH3030INS FM031200 22006KT 9000 BR SCT008 BKN020 OVC050 QNH3028INS TX10/0215Z TN07/0303Z FN20000